createdAt,value
2019-05-15T00:00:19.447Z,4.97
2019-05-15T00:01:19.482Z,4.87
2019-05-15T00:02:19.417Z,4.86
2019-05-15T00:03:19.810Z,4.84
2019-05-15T00:04:19.399Z,4.86
2019-05-15T00:05:19.391Z,4.77
2019-05-15T00:06:19.366Z,4.75
2019-05-15T00:07:19.365Z,4.82
2019-05-15T00:08:19.349Z,4.74
2019-05-15T00:09:19.387Z,4.86
2019-05-15T00:10:19.335Z,4.80
2019-05-15T00:11:19.472Z,4.78
2019-05-15T00:12:19.312Z,4.68
2019-05-15T00:13:19.296Z,4.63
2019-05-15T00:14:19.276Z,4.63
2019-05-15T00:15:19.283Z,4.71
2019-05-15T00:16:19.287Z,4.58
2019-05-15T00:17:19.349Z,4.53
2019-05-15T00:18:19.232Z,4.60
2019-05-15T00:19:19.220Z,4.58
2019-05-15T00:20:20.239Z,4.53
2019-05-15T00:21:19.199Z,4.52
2019-05-15T00:22:19.203Z,4.48
2019-05-15T00:23:19.177Z,4.42
2019-05-15T00:24:19.183Z,4.41
2019-05-15T00:25:19.166Z,4.35
2019-05-15T00:26:19.161Z,4.32
2019-05-15T00:27:20.243Z,4.28
2019-05-15T00:28:19.122Z,4.19
2019-05-15T00:29:19.936Z,4.31
2019-05-15T00:30:19.101Z,4.20
2019-05-15T00:31:19.101Z,4.24
2019-05-15T00:32:19.079Z,4.19
2019-05-15T00:33:19.421Z,4.23
2019-05-15T00:34:19.081Z,4.23
2019-05-15T00:35:19.047Z,4.22
2019-05-15T00:36:19.326Z,4.17
2019-05-15T00:37:19.026Z,4.17
2019-05-15T00:38:19.012Z,4.19
2019-05-15T00:39:19.146Z,4.13
2019-05-15T00:40:18.995Z,4.19
2019-05-15T00:41:18.986Z,4.14
2019-05-15T00:42:19.157Z,4.08
2019-05-15T00:43:18.970Z,4.10
2019-05-15T00:44:18.947Z,4.06
2019-05-15T00:45:18.940Z,4.05
2019-05-15T00:46:18.927Z,4.06
2019-05-15T00:47:18.944Z,4.14
2019-05-15T00:48:18.904Z,4.08
2019-05-15T00:49:19.055Z,4.10
2019-05-15T00:50:18.884Z,4.12
2019-05-15T00:51:19.674Z,4.08
2019-05-15T00:52:18.870Z,3.98
2019-05-15T00:53:19.670Z,3.98
2019-05-15T00:54:19.308Z,3.87
2019-05-15T00:55:19.231Z,3.92
2019-05-15T00:56:19.435Z,3.92
2019-05-15T00:57:19.364Z,3.92
2019-05-15T00:58:19.976Z,3.98
2019-05-15T00:59:26.247Z,3.96
2019-05-15T01:00:19.771Z,3.94
2019-05-15T01:01:19.298Z,3.91
2019-05-15T01:02:18.749Z,3.84
2019-05-15T01:03:18.742Z,3.81
2019-05-15T01:04:18.920Z,3.80
2019-05-15T01:05:18.744Z,3.76
2019-05-15T01:06:19.195Z,3.86
2019-05-15T01:07:18.931Z,3.87
2019-05-15T01:08:19.306Z,3.91
2019-05-15T01:09:18.854Z,3.86
2019-05-15T01:10:19.340Z,3.78
2019-05-15T01:11:19.210Z,3.80
2019-05-15T01:12:18.683Z,3.83
2019-05-15T01:13:19.114Z,3.73
2019-05-15T01:14:18.755Z,3.77
2019-05-15T01:15:18.620Z,3.74
2019-05-15T01:16:18.800Z,3.77
2019-05-15T01:17:18.652Z,3.81
2019-05-15T01:18:18.889Z,3.81
2019-05-15T01:19:18.674Z,3.74
2019-05-15T01:20:18.915Z,3.81
2019-05-15T01:21:18.867Z,3.83
2019-05-15T01:22:19.483Z,3.81
2019-05-15T01:23:18.822Z,3.73
2019-05-15T01:24:18.970Z,3.83
2019-05-15T01:25:18.698Z,3.77
2019-05-15T01:26:19.000Z,3.77
2019-05-15T01:27:18.606Z,3.78
2019-05-15T01:28:18.578Z,3.73
2019-05-15T01:29:18.452Z,3.80
2019-05-15T01:30:18.470Z,3.78
2019-05-15T01:31:19.063Z,3.83
2019-05-15T01:32:19.092Z,3.73
2019-05-15T01:33:19.017Z,3.81
2019-05-15T01:34:18.708Z,3.70
2019-05-15T01:35:18.391Z,3.78
2019-05-15T01:36:19.260Z,3.74
2019-05-15T01:37:18.889Z,3.80
2019-05-15T01:38:18.850Z,3.73
2019-05-15T01:39:18.604Z,3.77
2019-05-15T01:40:18.368Z,3.74
2019-05-15T01:41:18.887Z,3.78
2019-05-15T01:42:18.716Z,3.81
2019-05-15T01:43:18.881Z,3.84
2019-05-15T01:44:18.292Z,3.84
2019-05-15T01:45:18.937Z,3.74
2019-05-15T01:46:19.067Z,3.74
2019-05-15T01:47:18.926Z,3.76
2019-05-15T01:48:18.906Z,3.77
2019-05-15T01:49:18.704Z,3.80
2019-05-15T01:50:18.580Z,3.78
2019-05-15T01:51:18.568Z,3.78
2019-05-15T01:52:18.792Z,3.73
2019-05-15T01:53:18.681Z,3.86
2019-05-15T01:54:18.806Z,3.76
2019-05-15T01:55:18.273Z,3.80
2019-05-15T01:56:18.767Z,3.74
2019-05-15T01:57:18.268Z,3.77
2019-05-15T01:58:18.917Z,3.76
2019-05-15T01:59:18.959Z,3.78
2019-05-15T02:00:18.864Z,3.81
2019-05-15T02:01:19.098Z,3.78
2019-05-15T02:02:18.724Z,3.73
2019-05-15T02:03:18.519Z,3.74
2019-05-15T02:04:19.664Z,3.81
2019-05-15T02:05:18.803Z,3.84
2019-05-15T02:06:18.949Z,3.86
2019-05-15T02:07:18.696Z,3.86
2019-05-15T02:08:19.152Z,3.87
2019-05-15T02:09:18.605Z,3.91
2019-05-15T02:10:18.670Z,3.92
2019-05-15T02:11:18.172Z,3.88
2019-05-15T02:12:19.146Z,3.91
2019-05-15T02:13:18.665Z,3.92
2019-05-15T02:14:18.963Z,3.96
2019-05-15T02:15:19.041Z,3.88
2019-05-15T02:16:19.200Z,3.84
2019-05-15T02:17:18.962Z,3.87
2019-05-15T02:18:19.215Z,3.83
2019-05-15T02:19:19.415Z,3.76
2019-05-15T02:20:18.735Z,3.86
2019-05-15T02:21:18.401Z,3.83
2019-05-15T02:22:18.934Z,3.87
2019-05-15T02:23:18.904Z,3.87
2019-05-15T02:24:18.850Z,3.74
2019-05-15T02:25:18.519Z,3.77
2019-05-15T02:26:18.878Z,3.80
2019-05-15T02:27:18.685Z,3.70
2019-05-15T02:28:18.384Z,3.74
2019-05-15T02:29:24.228Z,3.78
2019-05-15T02:30:28.442Z,3.77
2019-05-15T02:31:19.817Z,3.76
2019-05-15T02:32:19.316Z,3.78
2019-05-15T02:33:18.897Z,3.77
2019-05-15T02:34:19.458Z,3.78
2019-05-15T02:35:18.538Z,3.69
2019-05-15T02:36:20.529Z,3.68
2019-05-15T02:37:19.236Z,3.74
2019-05-15T02:38:19.931Z,3.62
2019-05-15T02:39:18.998Z,3.69
2019-05-15T02:40:19.101Z,3.60
2019-05-15T02:41:19.547Z,3.59
2019-05-15T02:42:19.214Z,3.56
2019-05-15T02:43:19.001Z,3.68
2019-05-15T02:44:19.851Z,3.69
2019-05-15T02:45:19.563Z,3.73
2019-05-15T02:46:19.445Z,3.62
2019-05-15T02:47:19.893Z,3.60
2019-05-15T02:48:19.944Z,3.55
2019-05-15T02:49:19.163Z,3.58
2019-05-15T02:50:20.381Z,3.53
2019-05-15T02:51:19.408Z,3.60
2019-05-15T02:52:19.925Z,3.62
2019-05-15T02:53:19.008Z,3.62
2019-05-15T02:54:19.574Z,3.62
2019-05-15T02:55:19.740Z,3.62
2019-05-15T02:56:20.257Z,3.68
2019-05-15T02:57:19.203Z,3.56
2019-05-15T02:58:21.229Z,3.70
2019-05-15T02:59:19.423Z,3.69
2019-05-15T03:00:36.698Z,3.73
2019-05-15T03:01:19.112Z,3.77
2019-05-15T03:02:19.097Z,3.70
2019-05-15T03:03:20.141Z,3.58
2019-05-15T03:04:19.971Z,3.56
2019-05-15T03:05:19.593Z,3.74
2019-05-15T03:06:19.232Z,3.63
2019-05-15T03:07:19.263Z,3.55
2019-05-15T03:08:19.557Z,3.60
2019-05-15T03:09:18.762Z,3.68
2019-05-15T03:10:20.013Z,3.65
2019-05-15T03:11:18.929Z,3.60
2019-05-15T03:12:19.615Z,3.73
2019-05-15T03:13:18.889Z,3.77
2019-05-15T03:14:17.298Z,3.78
2019-05-15T03:15:19.439Z,3.73
2019-05-15T03:16:19.458Z,3.69
2019-05-15T03:17:19.069Z,3.70
2019-05-15T03:18:19.375Z,3.74
2019-05-15T03:19:19.335Z,3.65
2019-05-15T03:20:18.619Z,3.60
2019-05-15T03:21:18.759Z,3.48
2019-05-15T03:22:19.534Z,3.45
2019-05-15T03:23:19.841Z,3.40
2019-05-15T03:24:19.437Z,3.40
2019-05-15T03:25:19.160Z,3.21
2019-05-15T03:26:19.721Z,3.26
2019-05-15T03:27:19.716Z,3.21
2019-05-15T03:28:19.051Z,3.23
2019-05-15T03:29:17.134Z,3.21
2019-05-15T03:30:21.849Z,3.23
2019-05-15T03:31:40.608Z,3.22
2019-05-15T03:32:32.697Z,3.22
2019-05-15T03:33:26.622Z,3.29
2019-05-15T03:34:23.119Z,3.36
2019-05-15T03:35:22.566Z,3.47
2019-05-15T03:36:23.065Z,3.41
2019-05-15T03:37:22.346Z,3.41
2019-05-15T03:38:19.344Z,3.42
2019-05-15T03:39:19.025Z,3.47
2019-05-15T03:40:19.257Z,3.55
2019-05-15T03:41:19.493Z,3.63
2019-05-15T03:42:19.082Z,3.60
2019-05-15T03:43:18.561Z,3.70
2019-05-15T03:44:19.636Z,3.76
2019-05-15T03:45:19.258Z,3.73
2019-05-15T03:46:19.983Z,3.69
2019-05-15T03:47:19.421Z,3.73
2019-05-15T03:48:19.439Z,3.68
2019-05-15T03:49:19.684Z,3.74
2019-05-15T03:50:19.461Z,3.77
2019-05-15T03:51:19.750Z,3.78
2019-05-15T03:52:19.107Z,3.81
2019-05-15T03:53:19.186Z,3.86
2019-05-15T03:54:18.943Z,3.87
2019-05-15T03:55:18.710Z,3.87
2019-05-15T03:56:19.104Z,3.91
2019-05-15T03:57:20.080Z,3.92
2019-05-15T03:58:21.475Z,3.99
2019-05-15T03:59:19.286Z,3.87
2019-05-15T04:00:19.537Z,3.98
2019-05-15T04:01:30.144Z,3.98
2019-05-15T04:02:19.423Z,4.01
2019-05-15T04:03:19.932Z,4.04
2019-05-15T04:04:18.928Z,3.99
2019-05-15T04:05:19.669Z,4.05
2019-05-15T04:06:19.324Z,4.05
2019-05-15T04:07:18.849Z,4.06
2019-05-15T04:08:19.518Z,4.14
2019-05-15T04:09:18.936Z,4.14
2019-05-15T04:10:19.772Z,4.17
2019-05-15T04:11:20.032Z,4.26
2019-05-15T04:12:19.433Z,4.30
2019-05-15T04:13:19.574Z,4.19
2019-05-15T04:14:19.394Z,4.30
2019-05-15T04:15:18.697Z,4.26
2019-05-15T04:16:19.176Z,4.23
2019-05-15T04:17:19.542Z,4.23
2019-05-15T04:18:19.680Z,4.37
2019-05-15T04:19:19.143Z,4.40
2019-05-15T04:20:19.872Z,4.49
2019-05-15T04:21:19.673Z,4.45
2019-05-15T04:22:19.506Z,4.40
2019-05-15T04:23:19.099Z,4.42
2019-05-15T04:24:19.033Z,4.52
2019-05-15T04:25:19.150Z,4.58
2019-05-15T04:26:19.261Z,4.55
2019-05-15T04:27:19.558Z,4.62
2019-05-15T04:28:19.289Z,4.58
2019-05-15T04:29:19.324Z,4.78
2019-05-15T04:30:19.046Z,4.80
2019-05-15T04:31:19.191Z,4.84
2019-05-15T04:32:19.790Z,4.77
2019-05-15T04:33:19.677Z,4.80
2019-05-15T04:34:19.275Z,4.86
2019-05-15T04:35:19.565Z,4.92
2019-05-15T04:36:19.191Z,4.96
2019-05-15T04:37:18.915Z,5.05
2019-05-15T04:38:19.320Z,5.02
2019-05-15T04:39:19.108Z,4.99
2019-05-15T04:40:19.168Z,5.05
2019-05-15T04:41:19.472Z,5.14
2019-05-15T04:42:16.336Z,5.05
2019-05-15T04:43:19.217Z,5.18
2019-05-15T04:44:19.145Z,5.23
2019-05-15T04:45:19.193Z,5.28
2019-05-15T04:46:19.336Z,5.28
2019-05-15T04:47:19.012Z,5.26
2019-05-15T04:48:19.729Z,5.35
2019-05-15T04:49:19.065Z,5.28
2019-05-15T04:50:19.132Z,5.30
2019-05-15T04:51:18.912Z,5.36
2019-05-15T04:52:19.327Z,5.43
2019-05-15T04:53:19.071Z,5.46
2019-05-15T04:54:16.201Z,5.48
2019-05-15T04:55:19.451Z,5.48
2019-05-15T04:56:19.062Z,5.53
2019-05-15T04:57:19.168Z,5.47
2019-05-15T04:58:20.345Z,5.50
2019-05-15T04:59:19.270Z,5.48
2019-05-15T05:00:16.137Z,5.50
2019-05-15T05:01:19.691Z,5.61
2019-05-15T05:02:25.537Z,5.61
2019-05-15T05:03:20.016Z,5.57
2019-05-15T05:04:18.733Z,5.61
2019-05-15T05:05:18.815Z,5.72
2019-05-15T05:06:18.814Z,5.64
2019-05-15T05:07:18.706Z,5.68
2019-05-15T05:08:16.048Z,5.72
2019-05-15T05:09:16.036Z,5.82
2019-05-15T05:10:16.020Z,5.80
2019-05-15T05:11:16.017Z,5.90
2019-05-15T05:12:16.000Z,5.93
2019-05-15T05:13:19.409Z,6.02
2019-05-15T05:14:18.665Z,6.04
2019-05-15T05:15:18.835Z,6.02
2019-05-15T05:16:18.875Z,6.12
2019-05-15T05:17:15.953Z,6.16
2019-05-15T05:18:18.768Z,6.26
2019-05-15T05:19:15.942Z,6.27
2019-05-15T05:20:17.851Z,6.27
2019-05-15T05:21:18.267Z,6.28
2019-05-15T05:22:15.894Z,6.30
2019-05-15T05:23:15.872Z,6.28
2019-05-15T05:24:15.862Z,6.38
2019-05-15T05:25:18.201Z,6.31
2019-05-15T05:26:18.334Z,6.39
2019-05-15T05:27:18.113Z,6.46
2019-05-15T05:28:17.986Z,6.48
2019-05-15T05:29:17.753Z,6.51
2019-05-15T05:30:15.800Z,6.54
2019-05-15T05:31:15.792Z,6.64
2019-05-15T05:32:28.853Z,6.63
2019-05-15T05:33:17.908Z,6.75
2019-05-15T05:34:16.076Z,6.85
2019-05-15T05:35:15.748Z,6.85
2019-05-15T05:36:15.732Z,6.93
2019-05-15T05:37:15.731Z,6.95
2019-05-15T05:38:15.713Z,6.89
2019-05-15T05:39:17.664Z,6.99
2019-05-15T05:40:15.690Z,7.03
2019-05-15T05:41:15.680Z,7.02
2019-05-15T05:42:15.683Z,7.07
2019-05-15T05:43:15.650Z,6.99
2019-05-15T05:44:15.645Z,7.07
2019-05-15T05:45:18.050Z,7.11
2019-05-15T05:46:15.618Z,7.18
2019-05-15T05:47:15.624Z,7.20
2019-05-15T05:48:15.601Z,7.33
2019-05-15T05:49:15.587Z,7.32
2019-05-15T05:50:18.195Z,7.28
2019-05-15T05:51:15.567Z,7.32
2019-05-15T05:52:15.604Z,7.40
2019-05-15T05:53:15.545Z,7.31
2019-05-15T05:54:17.967Z,7.29
2019-05-15T05:55:17.783Z,7.28
2019-05-15T05:56:17.946Z,7.39
2019-05-15T05:57:15.500Z,7.42
2019-05-15T05:58:15.501Z,7.45
2019-05-15T05:59:15.481Z,7.54
2019-05-15T06:00:18.069Z,7.54
2019-05-15T06:01:15.459Z,7.66
2019-05-15T06:02:15.455Z,7.73
2019-05-15T06:03:15.433Z,7.72
2019-05-15T06:04:15.441Z,7.76
2019-05-15T06:05:15.463Z,7.82
2019-05-15T06:06:15.401Z,7.72
2019-05-15T06:07:15.396Z,7.70
2019-05-15T06:08:15.375Z,7.85
2019-05-15T06:09:15.376Z,7.93
2019-05-15T06:10:15.352Z,7.76
2019-05-15T06:11:15.339Z,7.94
2019-05-15T06:12:15.335Z,7.94
2019-05-15T06:13:15.320Z,7.93
2019-05-15T06:14:15.321Z,7.95
2019-05-15T06:15:15.301Z,8.06
2019-05-15T06:16:15.289Z,8.12
2019-05-15T06:17:15.281Z,8.15
2019-05-15T06:18:15.270Z,8.26
2019-05-15T06:19:15.259Z,8.19
2019-05-15T06:20:15.248Z,8.18
2019-05-15T06:21:15.232Z,8.24
2019-05-15T06:22:15.221Z,8.38
2019-05-15T06:23:15.226Z,8.45
2019-05-15T06:24:15.200Z,8.53
2019-05-15T06:25:15.192Z,8.70
2019-05-15T06:26:15.199Z,8.70
2019-05-15T06:27:15.169Z,8.79
2019-05-15T06:28:15.152Z,8.84
2019-05-15T06:29:15.143Z,9.00
2019-05-15T06:30:26.024Z,9.13
2019-05-15T06:31:16.166Z,9.28
2019-05-15T06:32:15.115Z,9.39
2019-05-15T06:33:15.104Z,9.56
2019-05-15T06:34:15.091Z,9.61
2019-05-15T06:35:15.081Z,9.68
2019-05-15T06:36:15.070Z,9.79
2019-05-15T06:37:15.063Z,9.89
2019-05-15T06:38:15.048Z,9.84
2019-05-15T06:39:15.029Z,9.83
2019-05-15T06:40:15.019Z,9.80
2019-05-15T06:41:15.025Z,9.80
2019-05-15T06:42:15.006Z,9.79
2019-05-15T06:43:14.991Z,9.82
2019-05-15T06:44:14.981Z,9.87
2019-05-15T06:45:14.965Z,9.82
2019-05-15T06:46:14.961Z,9.76
2019-05-15T06:47:14.960Z,9.68
2019-05-15T06:48:14.931Z,9.59
2019-05-15T06:49:14.933Z,9.48
2019-05-15T06:50:14.910Z,9.34
2019-05-15T06:51:14.906Z,9.32
2019-05-15T06:52:14.900Z,9.26
2019-05-15T06:53:14.937Z,9.44
2019-05-15T06:54:14.887Z,9.39
2019-05-15T06:55:14.856Z,9.54
2019-05-15T06:56:14.847Z,9.54
2019-05-15T06:57:14.841Z,9.72
2019-05-15T06:58:14.837Z,9.68
2019-05-15T06:59:14.830Z,9.83
2019-05-15T07:00:14.800Z,9.89
2019-05-15T07:01:14.790Z,9.92
2019-05-15T07:02:14.785Z,9.99
2019-05-15T07:03:21.687Z,10.09
2019-05-15T07:04:18.026Z,10.13
2019-05-15T07:05:14.741Z,10.25
2019-05-15T07:06:14.742Z,10.25
2019-05-15T07:07:14.725Z,10.25
2019-05-15T07:08:14.709Z,10.31
2019-05-15T07:09:14.706Z,10.25
2019-05-15T07:10:14.693Z,10.33
2019-05-15T07:11:14.680Z,10.46
2019-05-15T07:12:14.663Z,10.56
2019-05-15T07:13:14.654Z,10.67
2019-05-15T07:14:14.652Z,10.64
2019-05-15T07:15:14.630Z,10.74
2019-05-15T07:16:14.623Z,10.67
2019-05-15T07:17:14.628Z,10.78
2019-05-15T07:18:14.602Z,10.93
2019-05-15T07:19:14.594Z,11.04
2019-05-15T07:20:14.582Z,11.08
2019-05-15T07:21:17.481Z,11.12
2019-05-15T07:22:18.105Z,11.23
2019-05-15T07:23:14.546Z,11.26
2019-05-15T07:24:14.543Z,11.27
2019-05-15T07:25:14.520Z,11.29
2019-05-15T07:26:14.508Z,11.14
2019-05-15T07:27:14.506Z,11.17
2019-05-15T07:28:14.493Z,11.04
2019-05-15T07:29:14.474Z,10.97
2019-05-15T07:30:14.482Z,10.93
2019-05-15T07:31:14.452Z,10.84
2019-05-15T07:32:14.455Z,10.74
2019-05-15T07:33:14.431Z,10.68
2019-05-15T07:34:14.419Z,10.40
2019-05-15T07:35:14.417Z,10.31
2019-05-15T07:36:14.406Z,10.19
2019-05-15T07:37:14.399Z,10.15
2019-05-15T07:38:14.380Z,10.22
2019-05-15T07:39:14.364Z,10.25
2019-05-15T07:40:14.356Z,10.28
2019-05-15T07:41:14.339Z,10.35
2019-05-15T07:42:14.358Z,10.38
2019-05-15T07:43:14.323Z,10.37
2019-05-15T07:44:14.310Z,10.44
2019-05-15T07:45:14.301Z,10.57
2019-05-15T07:46:14.290Z,10.71
2019-05-15T07:47:14.272Z,10.84
2019-05-15T07:48:14.280Z,11.00
2019-05-15T07:49:14.252Z,11.30
2019-05-15T07:50:14.246Z,11.51
2019-05-15T07:51:14.231Z,11.59
2019-05-15T07:52:14.221Z,11.65
2019-05-15T07:53:14.239Z,11.75
2019-05-15T07:54:14.194Z,11.66
2019-05-15T07:55:14.182Z,11.70
2019-05-15T07:56:14.171Z,11.78
2019-05-15T07:57:14.169Z,11.80
2019-05-15T07:58:14.190Z,11.87
2019-05-15T07:59:14.146Z,11.86
2019-05-15T08:00:14.131Z,11.94
2019-05-15T08:01:14.123Z,11.99
2019-05-15T08:02:14.110Z,11.99
2019-05-15T08:03:14.157Z,12.10
2019-05-15T08:04:25.037Z,12.04
2019-05-15T08:05:15.072Z,12.10
2019-05-15T08:06:14.066Z,12.00
2019-05-15T08:07:14.054Z,12.03
2019-05-15T08:08:14.045Z,12.02
2019-05-15T08:09:14.033Z,11.94
2019-05-15T08:10:14.036Z,11.87
2019-05-15T08:11:20.858Z,11.77
2019-05-15T08:12:15.000Z,11.75
2019-05-15T08:13:13.984Z,11.81
2019-05-15T08:14:13.983Z,11.70
2019-05-15T08:15:13.968Z,11.69
2019-05-15T08:16:13.969Z,11.72
2019-05-15T08:17:13.941Z,11.70
2019-05-15T08:18:13.935Z,11.63
2019-05-15T08:19:13.950Z,11.51
2019-05-15T08:20:13.915Z,11.65
2019-05-15T08:21:13.902Z,11.77
2019-05-15T08:22:15.178Z,11.72
2019-05-15T08:23:13.893Z,11.72
2019-05-15T08:24:13.870Z,11.94
2019-05-15T08:25:30.063Z,11.99
2019-05-15T08:26:14.846Z,12.09
2019-05-15T08:27:13.835Z,12.25
2019-05-15T08:28:13.825Z,12.45
2019-05-15T08:29:13.820Z,12.58
2019-05-15T08:30:13.816Z,12.61
2019-05-15T08:31:13.791Z,12.54
2019-05-15T08:32:13.772Z,12.64
2019-05-15T08:33:13.777Z,12.45
2019-05-15T08:34:16.412Z,12.37
2019-05-15T08:35:13.750Z,12.35
2019-05-15T08:36:13.731Z,12.43
2019-05-15T08:37:13.731Z,12.45
2019-05-15T08:38:14.279Z,12.40
2019-05-15T08:39:13.700Z,12.47
2019-05-15T08:40:13.688Z,12.42
2019-05-15T08:41:15.583Z,12.22
2019-05-15T08:42:13.674Z,12.27
2019-05-15T08:43:13.654Z,12.32
2019-05-15T08:44:13.641Z,12.31
2019-05-15T08:45:13.624Z,12.22
2019-05-15T08:46:13.615Z,12.21
2019-05-15T08:47:13.616Z,12.28
2019-05-15T08:48:13.600Z,12.32
2019-05-15T08:49:13.579Z,12.28
2019-05-15T08:50:13.575Z,12.22
2019-05-15T08:51:13.558Z,12.24
2019-05-15T08:52:13.592Z,12.36
2019-05-15T08:53:13.540Z,12.46
2019-05-15T08:54:13.529Z,12.50
2019-05-15T08:55:13.513Z,12.39
2019-05-15T08:56:14.851Z,12.45
2019-05-15T08:57:13.497Z,12.50
2019-05-15T08:58:14.199Z,12.64
2019-05-15T08:59:13.475Z,12.57
2019-05-15T09:00:13.459Z,12.67
2019-05-15T09:01:13.449Z,12.62
2019-05-15T09:02:13.448Z,12.79
2019-05-15T09:03:13.438Z,13.04
2019-05-15T09:04:26.643Z,13.20
2019-05-15T09:05:14.399Z,13.38
2019-05-15T09:06:13.394Z,13.81
2019-05-15T09:07:13.376Z,13.81
2019-05-15T09:08:13.366Z,14.12
2019-05-15T09:09:13.367Z,14.20
2019-05-15T09:10:13.358Z,14.14
2019-05-15T09:11:13.337Z,14.18
2019-05-15T09:12:13.322Z,14.10
2019-05-15T09:13:13.312Z,13.83
2019-05-15T09:14:13.318Z,13.62
2019-05-15T09:15:13.287Z,13.54
2019-05-15T09:16:13.285Z,13.59
2019-05-15T09:17:13.264Z,13.56
2019-05-15T09:18:16.243Z,13.62
2019-05-15T09:19:13.247Z,13.90
2019-05-15T09:20:13.247Z,13.86
2019-05-15T09:21:13.226Z,14.07
2019-05-15T09:22:13.220Z,14.18
2019-05-15T09:23:13.259Z,14.30
2019-05-15T09:24:13.187Z,14.32
2019-05-15T09:25:13.183Z,14.18
2019-05-15T09:26:13.178Z,13.78
2019-05-15T09:27:13.158Z,13.62
2019-05-15T09:28:13.141Z,13.38
2019-05-15T09:29:13.191Z,13.23
2019-05-15T09:30:13.126Z,13.04
2019-05-15T09:31:13.117Z,13.03
2019-05-15T09:32:13.105Z,13.03
2019-05-15T09:33:13.094Z,13.11
2019-05-15T09:34:13.179Z,13.00
2019-05-15T09:35:13.068Z,12.91
2019-05-15T09:36:13.061Z,12.90
2019-05-15T09:37:13.047Z,13.01
2019-05-15T09:38:13.029Z,13.01
2019-05-15T09:39:13.560Z,13.12
2019-05-15T09:40:13.027Z,13.30
2019-05-15T09:41:13.018Z,13.39
2019-05-15T09:42:12.990Z,13.63
2019-05-15T09:43:12.979Z,13.87
2019-05-15T09:44:12.969Z,13.92
2019-05-15T09:45:12.959Z,13.89
2019-05-15T09:46:12.966Z,13.83
2019-05-15T09:47:12.934Z,13.72
2019-05-15T09:48:14.749Z,13.81
2019-05-15T09:49:12.908Z,13.71
2019-05-15T09:50:12.897Z,13.63
2019-05-15T09:51:12.904Z,13.79
2019-05-15T09:52:12.878Z,13.89
2019-05-15T09:53:12.878Z,13.96
2019-05-15T09:54:12.862Z,14.14
2019-05-15T09:55:12.844Z,14.23
2019-05-15T09:56:12.842Z,14.50
2019-05-15T09:57:12.825Z,14.69
2019-05-15T09:58:12.809Z,14.60
2019-05-15T09:59:12.801Z,14.70
2019-05-15T10:00:12.792Z,14.82
2019-05-15T10:01:12.798Z,14.82
2019-05-15T10:02:12.779Z,14.60
2019-05-15T10:03:12.761Z,14.35
2019-05-15T10:04:12.740Z,14.15
2019-05-15T10:05:12.734Z,14.17
2019-05-15T10:06:12.730Z,14.29
2019-05-15T10:07:12.736Z,14.15
2019-05-15T10:08:12.708Z,14.28
2019-05-15T10:09:12.684Z,14.30
2019-05-15T10:10:12.673Z,14.25
2019-05-15T10:11:12.668Z,14.08
2019-05-15T10:12:12.667Z,14.12
2019-05-15T10:13:12.660Z,14.11
2019-05-15T10:14:12.634Z,14.22
2019-05-15T10:15:12.615Z,14.18
2019-05-15T10:16:12.605Z,14.28
2019-05-15T10:17:12.623Z,14.26
2019-05-15T10:18:12.596Z,14.23
2019-05-15T10:19:12.573Z,14.18
2019-05-15T10:20:12.593Z,14.32
2019-05-15T10:21:12.556Z,14.29
2019-05-15T10:22:12.556Z,14.28
2019-05-15T10:23:12.623Z,14.25
2019-05-15T10:24:12.519Z,14.23
2019-05-15T10:25:12.520Z,14.20
2019-05-15T10:26:14.189Z,14.05
2019-05-15T10:27:12.492Z,14.05
2019-05-15T10:28:15.200Z,13.97
2019-05-15T10:29:12.470Z,13.83
2019-05-15T10:30:12.482Z,13.78
2019-05-15T10:31:12.467Z,13.79
2019-05-15T10:32:12.428Z,13.57
2019-05-15T10:33:12.424Z,13.54
2019-05-15T10:34:12.428Z,13.57
2019-05-15T10:35:28.101Z,13.54
2019-05-15T10:36:13.385Z,13.59
2019-05-15T10:37:12.373Z,13.53
2019-05-15T10:38:12.364Z,13.68
2019-05-15T10:39:12.482Z,13.70
2019-05-15T10:40:12.368Z,13.57
2019-05-15T10:41:15.111Z,13.56
2019-05-15T10:42:12.318Z,13.57
2019-05-15T10:43:12.314Z,13.54
2019-05-15T10:44:12.303Z,13.59
2019-05-15T10:45:12.299Z,13.54
2019-05-15T10:46:13.672Z,13.38
2019-05-15T10:47:12.261Z,13.25
2019-05-15T10:48:12.259Z,13.22
2019-05-15T10:49:12.249Z,13.41
2019-05-15T10:50:12.241Z,13.49
2019-05-15T10:51:12.225Z,13.44
2019-05-15T10:52:12.213Z,13.50
2019-05-15T10:53:12.198Z,13.39
2019-05-15T10:54:12.189Z,13.25
2019-05-15T10:55:12.204Z,13.19
2019-05-15T10:56:12.171Z,13.16
2019-05-15T10:57:12.148Z,13.04
2019-05-15T10:58:14.124Z,13.18
2019-05-15T10:59:12.131Z,13.13
2019-05-15T11:00:12.122Z,13.13
2019-05-15T11:01:12.112Z,12.95
2019-05-15T11:02:12.103Z,12.94
2019-05-15T11:03:12.091Z,13.00
2019-05-15T11:04:12.069Z,13.11
2019-05-15T11:05:12.074Z,13.12
2019-05-15T11:06:12.060Z,13.11
2019-05-15T11:07:12.045Z,13.20
2019-05-15T11:08:12.026Z,13.28
2019-05-15T11:09:12.013Z,13.16
2019-05-15T11:10:12.003Z,13.15
2019-05-15T11:11:12.017Z,13.13
2019-05-15T11:12:11.991Z,13.20
2019-05-15T11:13:11.980Z,13.12
2019-05-15T11:14:11.959Z,13.15
2019-05-15T11:15:11.950Z,13.08
2019-05-15T11:16:11.944Z,13.18
2019-05-15T11:17:11.963Z,13.16
2019-05-15T11:18:11.964Z,13.05
2019-05-15T11:19:11.907Z,13.01
2019-05-15T11:20:11.895Z,13.11
2019-05-15T11:21:11.876Z,13.05
2019-05-15T11:22:11.867Z,13.00
2019-05-15T11:23:11.869Z,13.13
2019-05-15T11:24:11.843Z,13.15
2019-05-15T11:25:11.855Z,13.19
2019-05-15T11:26:11.820Z,13.28
2019-05-15T11:27:11.816Z,13.41
2019-05-15T11:28:11.802Z,13.37
2019-05-15T11:29:11.789Z,13.49
2019-05-15T11:30:11.777Z,13.49
2019-05-15T11:31:11.779Z,13.52
2019-05-15T11:32:11.773Z,13.54
2019-05-15T11:33:11.738Z,13.62
2019-05-15T11:34:11.733Z,13.57
2019-05-15T11:35:11.719Z,13.56
2019-05-15T11:36:11.725Z,13.56
2019-05-15T11:37:11.699Z,13.56
2019-05-15T11:38:11.696Z,13.49
2019-05-15T11:39:11.680Z,13.49
2019-05-15T11:40:11.659Z,13.56
2019-05-15T11:41:11.647Z,13.53
2019-05-15T11:42:11.639Z,13.54
2019-05-15T11:43:11.627Z,13.52
2019-05-15T11:44:11.620Z,13.47
2019-05-15T11:45:11.601Z,13.46
2019-05-15T11:46:11.637Z,13.52
2019-05-15T11:47:11.579Z,13.63
2019-05-15T11:48:11.575Z,13.67
2019-05-15T11:49:11.562Z,13.67
2019-05-15T11:50:11.547Z,13.70
2019-05-15T11:51:11.557Z,13.79
2019-05-15T11:52:11.532Z,13.90
2019-05-15T11:53:11.527Z,14.03
2019-05-15T11:54:11.509Z,14.11
2019-05-15T11:55:11.489Z,14.18
2019-05-15T11:56:11.482Z,14.11
2019-05-15T11:57:11.480Z,14.18
2019-05-15T11:58:11.461Z,14.28
2019-05-15T11:59:11.532Z,14.25
2019-05-15T12:00:17.175Z,14.23
2019-05-15T12:01:12.429Z,14.26
2019-05-15T12:02:11.436Z,14.23
2019-05-15T12:03:11.403Z,14.33
2019-05-15T12:04:26.425Z,14.32
2019-05-15T12:05:12.375Z,14.33
2019-05-15T12:06:18.513Z,14.20
2019-05-15T12:07:12.362Z,14.23
2019-05-15T12:08:12.665Z,14.22
2019-05-15T12:09:11.337Z,14.26
2019-05-15T12:10:11.338Z,14.35
2019-05-15T12:11:26.983Z,14.37
2019-05-15T12:12:12.299Z,14.35
2019-05-15T12:13:11.288Z,14.45
2019-05-15T12:14:11.281Z,14.43
2019-05-15T12:15:11.284Z,14.44
2019-05-15T12:16:11.263Z,14.48
2019-05-15T12:17:15.334Z,14.50
2019-05-15T12:18:11.258Z,14.40
2019-05-15T12:19:17.162Z,14.26
2019-05-15T12:20:12.208Z,14.26
2019-05-15T12:21:11.203Z,14.29
2019-05-15T12:22:11.201Z,14.28
2019-05-15T12:23:11.187Z,14.37
2019-05-15T12:24:11.176Z,14.36
2019-05-15T12:25:11.161Z,14.36
2019-05-15T12:26:11.151Z,14.44
2019-05-15T12:27:17.746Z,14.47
2019-05-15T12:28:12.121Z,14.41
2019-05-15T12:29:11.116Z,14.43
2019-05-15T12:30:11.099Z,14.37
2019-05-15T12:31:11.087Z,14.48
2019-05-15T12:32:23.566Z,14.58
2019-05-15T12:33:12.078Z,14.65
2019-05-15T12:34:11.122Z,14.70
2019-05-15T12:35:11.048Z,14.73
2019-05-15T12:36:11.211Z,14.66
2019-05-15T12:37:11.023Z,14.69
2019-05-15T12:38:11.046Z,14.82
2019-05-15T12:39:13.696Z,14.88
2019-05-15T12:59:41.653Z,14.77
2019-05-15T13:00:11.771Z,14.81
2019-05-15T13:01:17.101Z,14.68
2019-05-15T13:02:11.746Z,14.72
2019-05-15T13:03:10.736Z,14.82
2019-05-15T13:04:10.719Z,14.69
2019-05-15T13:05:10.721Z,14.65
2019-05-15T13:06:10.701Z,14.53
2019-05-15T13:07:15.931Z,14.28
2019-05-15T13:08:11.673Z,13.96
2019-05-15T13:09:10.667Z,13.74
2019-05-15T13:10:10.662Z,13.60
2019-05-15T13:11:14.980Z,13.54
2019-05-15T13:12:10.661Z,13.59
2019-05-15T13:13:10.639Z,13.46
2019-05-15T13:14:10.608Z,13.50
2019-05-15T13:15:10.604Z,13.44
2019-05-15T13:16:10.588Z,13.39
2019-05-15T13:17:10.576Z,13.47
2019-05-15T13:18:14.647Z,13.54
2019-05-15T13:19:10.551Z,13.60
2019-05-15T13:20:10.549Z,13.63
2019-05-15T13:21:10.572Z,13.56
2019-05-15T13:22:17.594Z,13.27
2019-05-15T13:23:11.509Z,13.05
2019-05-15T13:24:10.499Z,12.83
2019-05-15T13:25:10.482Z,12.64